createdAt,value
2023-04-05T00:02:04.333Z,3.97
2023-04-05T00:04:35.906Z,3.72
2023-04-05T00:07:08.588Z,4.95
2023-04-05T00:09:38.301Z,4.50
2023-04-05T00:12:10.767Z,3.60
2023-04-05T00:14:40.624Z,4.18
2023-04-05T00:17:11.141Z,3.58
2023-04-05T00:19:43.514Z,4.13
2023-04-05T00:22:12.871Z,3.60
2023-04-05T00:24:43.758Z,3.15
2023-04-05T00:27:14.705Z,3.85
2023-04-05T00:29:44.356Z,4.10
2023-04-05T00:32:13.747Z,4.25
2023-04-05T00:34:43.520Z,3.88
2023-04-05T00:37:13.848Z,3.90
2023-04-05T00:39:43.767Z,5.00
2023-04-05T00:42:14.522Z,3.47
2023-04-05T00:44:44.313Z,4.68
2023-04-05T00:47:14.339Z,4.60
2023-04-05T00:49:44.645Z,3.60
2023-04-05T00:52:14.926Z,3.55
2023-04-05T00:54:45.492Z,4.32
2023-04-05T00:57:17.069Z,2.92
2023-04-05T00:59:46.749Z,3.45
2023-04-05T01:02:24.829Z,4.43
2023-04-05T01:05:01.893Z,3.72
2023-04-05T01:07:41.052Z,2.95
2023-04-05T01:10:13.959Z,3.50
2023-04-05T01:12:45.354Z,3.20
2023-04-05T01:15:15.245Z,3.50
2023-04-05T01:17:47.287Z,3.00
2023-04-05T01:20:17.327Z,4.10
2023-04-05T01:23:19.931Z,3.35
2023-04-05T01:26:22.875Z,4.05
2023-04-05T01:29:12.467Z,4.70
2023-04-05T01:31:51.655Z,2.95
2023-04-05T01:34:27.878Z,3.22
2023-04-05T01:37:03.419Z,3.33
2023-04-05T01:39:33.847Z,2.70
2023-04-05T01:42:04.135Z,3.08
2023-04-05T01:44:33.817Z,2.53
2023-04-05T01:47:05.527Z,3.50
2023-04-05T01:49:34.838Z,2.42
2023-04-05T01:52:05.590Z,2.20
2023-04-05T01:54:35.026Z,3.17
2023-04-05T01:57:04.996Z,2.92
2023-04-05T01:59:34.632Z,4.25
2023-04-05T02:02:07.452Z,2.72
2023-04-05T02:04:37.134Z,3.20
2023-04-05T02:07:07.376Z,3.00
2023-04-05T02:09:36.729Z,2.50
2023-04-05T02:12:06.636Z,3.03
2023-04-05T02:14:36.147Z,2.55
2023-04-05T02:17:07.433Z,2.63
2023-04-05T02:19:41.227Z,2.75
2023-04-05T02:22:11.749Z,2.05
2023-04-05T02:24:41.667Z,2.63
2023-04-05T02:27:11.892Z,2.17
2023-04-05T02:29:41.722Z,2.95
2023-04-05T02:32:13.242Z,2.38
2023-04-05T02:34:43.868Z,2.08
2023-04-05T02:37:14.576Z,2.90
2023-04-05T02:39:44.101Z,2.90
2023-04-05T02:42:14.184Z,2.42
2023-04-05T02:44:43.760Z,2.30
2023-04-05T02:47:17.671Z,2.10
2023-04-05T02:49:46.920Z,3.35
2023-04-05T02:52:17.935Z,2.28
2023-04-05T02:54:47.204Z,2.40
2023-04-05T02:57:17.696Z,2.27
2023-04-05T02:59:47.161Z,2.53
2023-04-05T03:02:18.516Z,2.05
2023-04-05T03:04:47.825Z,2.60
2023-04-05T03:07:18.810Z,2.20
2023-04-05T03:09:48.235Z,3.45
2023-04-05T03:12:18.058Z,2.63
2023-04-05T03:14:47.661Z,2.30
2023-04-05T03:17:19.106Z,1.88
2023-04-05T03:19:48.759Z,2.47
2023-04-05T03:22:19.934Z,2.47
2023-04-05T03:24:49.335Z,2.20
2023-04-05T03:27:19.108Z,2.60
2023-04-05T03:29:49.278Z,2.55
2023-04-05T03:32:20.753Z,2.63
2023-04-05T03:34:50.490Z,3.47
2023-04-05T03:37:20.127Z,3.20
2023-04-05T03:39:49.808Z,2.45
2023-04-05T03:42:19.547Z,3.10
2023-04-05T03:44:52.248Z,2.58
2023-04-05T03:47:23.876Z,3.22
2023-04-05T03:49:53.196Z,3.78
2023-04-05T03:52:22.794Z,4.78
2023-04-05T03:54:52.791Z,3.42
2023-04-05T03:57:22.784Z,3.75
2023-04-05T03:59:52.256Z,3.17
2023-04-05T04:02:23.538Z,2.75
2023-04-05T04:07:24.132Z,4.88
2023-04-05T04:09:55.667Z,5.00
2023-04-05T04:12:25.600Z,6.57
2023-04-05T04:14:54.941Z,5.05
2023-04-05T04:17:33.260Z,3.03
2023-04-05T04:20:08.046Z,2.60
2023-04-05T04:22:39.151Z,3.03
2023-04-05T04:25:11.773Z,2.70
2023-04-05T04:27:43.257Z,2.92
2023-04-05T04:32:58.979Z,2.65
2023-04-05T04:35:29.665Z,2.92
2023-04-05T04:40:32.697Z,2.53
2023-04-05T04:43:02.911Z,3.40
2023-04-05T04:45:35.180Z,2.65
2023-04-05T04:48:07.895Z,2.92
2023-04-05T04:50:37.964Z,3.97
2023-04-05T04:53:07.645Z,3.75
2023-04-05T04:55:37.683Z,2.50
2023-04-05T04:58:10.484Z,2.90
2023-04-05T05:00:42.367Z,2.92
2023-04-05T05:03:14.493Z,2.90
2023-04-05T05:05:48.172Z,3.78
2023-04-05T05:08:21.120Z,3.40
2023-04-05T05:10:53.782Z,3.35
2023-04-05T05:13:23.472Z,3.58
2023-04-05T05:15:53.447Z,3.50
2023-04-05T05:18:24.661Z,3.60
2023-04-05T05:20:54.103Z,4.10
2023-04-05T05:23:24.121Z,3.92
2023-04-05T05:25:58.799Z,3.40
2023-04-05T05:28:29.152Z,3.90
2023-04-05T05:30:58.426Z,3.78
2023-04-05T05:33:30.121Z,4.28
2023-04-05T05:35:59.543Z,3.55
2023-04-05T05:38:29.574Z,2.58
2023-04-05T05:40:59.388Z,4.63
2023-04-05T05:43:29.169Z,3.77
2023-04-05T05:46:02.013Z,3.30
2023-04-05T05:48:33.576Z,3.15
2023-04-05T05:51:03.223Z,4.18
2023-04-05T05:53:32.810Z,3.92
2023-04-05T05:56:02.268Z,3.60
2023-04-05T05:58:32.034Z,4.30
2023-04-05T06:01:10.191Z,4.07
2023-04-05T06:03:42.184Z,4.75
2023-04-05T06:06:12.662Z,4.38
2023-04-05T06:08:43.708Z,4.90
2023-04-05T06:11:19.730Z,4.30
2023-04-05T06:13:50.123Z,5.32
2023-04-05T06:16:19.724Z,5.90
2023-04-05T06:18:51.432Z,4.57
2023-04-05T06:21:20.790Z,4.50
2023-04-05T06:23:50.831Z,6.27
2023-04-05T06:26:21.180Z,3.80
2023-04-05T06:28:51.364Z,3.30
2023-04-05T06:31:23.023Z,4.38
2023-04-05T06:33:54.263Z,3.95
2023-04-05T06:36:26.104Z,3.17
2023-04-05T06:38:57.417Z,3.33
2023-04-05T06:41:27.981Z,2.53
2023-04-05T06:43:58.153Z,3.05
2023-04-05T06:46:27.796Z,2.03
2023-04-05T06:49:03.572Z,3.03
2023-04-05T06:51:33.692Z,2.30
2023-04-05T06:54:03.968Z,2.90
2023-04-05T06:56:33.353Z,3.13
2023-04-05T06:59:03.807Z,2.83
2023-04-05T07:01:33.887Z,2.70
2023-04-05T07:04:05.086Z,3.47
2023-04-05T07:06:35.588Z,1.88
2023-04-05T07:09:05.642Z,2.72
2023-04-05T07:11:35.378Z,1.73
2023-04-05T07:14:05.299Z,1.73
2023-04-05T07:16:34.885Z,2.00
2023-04-05T07:19:07.535Z,1.90
2023-04-05T07:21:36.898Z,2.17
2023-04-05T07:24:07.427Z,2.15
2023-04-05T07:26:37.721Z,2.35
2023-04-05T07:29:08.220Z,1.85
2023-04-05T07:31:37.657Z,2.30
2023-04-05T07:34:09.155Z,1.95
2023-04-05T07:36:39.274Z,1.60
2023-04-05T07:41:40.193Z,2.03
2023-04-05T07:44:10.361Z,2.05
2023-04-05T07:46:46.908Z,1.67
2023-04-05T07:49:19.664Z,1.70
2023-04-05T07:51:49.700Z,1.85
2023-04-05T07:54:22.031Z,1.60
2023-04-05T07:56:52.065Z,1.75
2023-04-05T07:59:22.356Z,1.60
2023-04-05T08:01:52.031Z,1.75
2023-04-05T08:04:26.570Z,1.55
2023-04-05T08:06:55.910Z,1.08
2023-04-05T08:09:25.528Z,1.27
2023-04-05T08:11:54.977Z,1.65
2023-04-05T08:14:25.040Z,1.73
2023-04-05T08:16:54.891Z,1.73
2023-04-05T08:19:26.339Z,2.25
2023-04-05T08:24:25.564Z,2.05
2023-04-05T08:26:54.925Z,2.25
2023-04-05T08:29:24.649Z,1.60
2023-04-05T08:31:54.502Z,1.70
2023-04-05T08:34:26.011Z,1.77
2023-04-05T08:36:55.403Z,1.80
2023-04-05T08:39:25.163Z,1.85
2023-04-05T08:42:03.253Z,1.83
2023-04-05T08:44:33.790Z,1.75
2023-04-05T08:47:03.244Z,1.52
2023-04-05T08:49:34.743Z,3.15
2023-04-05T08:52:05.231Z,2.00
2023-04-05T08:54:34.993Z,1.95
2023-04-05T08:57:07.418Z,1.60
2023-04-05T08:59:41.123Z,1.88
2023-04-05T09:02:17.413Z,2.08
2023-04-05T09:04:50.218Z,1.45
2023-04-05T09:07:21.556Z,1.95
2023-04-05T09:09:55.238Z,1.98
2023-04-05T09:12:26.941Z,2.15
2023-04-05T09:14:57.741Z,1.90
2023-04-05T09:17:27.695Z,1.17
2023-04-05T09:19:58.933Z,1.90
2023-04-05T09:22:29.162Z,1.52
2023-04-05T09:24:58.881Z,2.15
2023-04-05T09:27:28.799Z,2.03
2023-04-05T09:29:59.099Z,2.53
2023-04-05T09:32:29.840Z,2.10
2023-04-05T09:35:04.312Z,1.50
2023-04-05T09:37:35.796Z,1.80
2023-04-05T09:40:16.354Z,1.83
2023-04-05T09:42:47.254Z,2.00
2023-04-05T09:45:18.770Z,1.77
2023-04-05T09:47:58.115Z,1.38
2023-04-05T09:50:29.481Z,1.38
2023-04-05T09:53:09.059Z,0.95
2023-04-05T09:55:40.680Z,1.30
2023-04-05T09:58:14.593Z,1.25
2023-04-05T10:00:57.888Z,1.10
2023-04-05T10:03:33.051Z,2.10
2023-04-05T10:06:04.238Z,1.70
2023-04-05T10:08:33.882Z,1.88
2023-04-05T10:11:06.012Z,3.95
2023-04-05T10:13:36.906Z,2.70
2023-04-05T10:16:10.839Z,1.88
2023-04-05T10:18:48.003Z,1.70
2023-04-05T10:21:23.960Z,1.50
2023-04-05T10:24:03.452Z,1.88
2023-04-05T10:26:42.122Z,2.20
2023-04-05T10:29:16.737Z,1.58
2023-04-05T10:31:53.681Z,2.33
2023-04-05T10:34:33.608Z,1.85
2023-04-05T10:37:04.903Z,2.73
2023-04-05T10:42:13.335Z,1.60
2023-04-05T10:44:45.275Z,2.20
2023-04-05T10:47:18.527Z,1.45
2023-04-05T10:49:51.448Z,1.65
2023-04-05T10:52:24.185Z,1.80
2023-04-05T10:54:57.033Z,1.48
2023-04-05T10:57:27.401Z,1.95
2023-04-05T10:59:57.519Z,1.55
2023-04-05T11:02:27.699Z,1.20
2023-04-05T11:04:58.433Z,1.60
2023-04-05T11:10:19.010Z,1.40
2023-04-05T11:13:12.816Z,1.70
2023-04-05T11:15:43.397Z,1.80
2023-04-05T11:18:22.198Z,1.88
2023-04-05T11:20:53.004Z,2.40
2023-04-05T11:23:25.863Z,2.80
2023-04-05T11:25:57.894Z,2.65
2023-04-05T11:28:32.217Z,3.00
2023-04-05T11:31:17.026Z,2.67
2023-04-05T11:33:59.837Z,3.33
2023-04-05T11:36:35.255Z,3.30
2023-04-05T11:39:31.246Z,3.75
2023-04-05T11:42:05.898Z,2.92
2023-04-05T11:44:43.970Z,2.90
2023-04-05T11:47:13.839Z,2.78
2023-04-05T11:49:47.547Z,2.55
2023-04-05T11:52:18.484Z,2.72
2023-04-05T11:54:50.349Z,2.83
2023-04-05T11:57:22.796Z,3.50
2023-04-05T11:59:54.068Z,3.25
2023-04-05T12:02:24.114Z,2.50
2023-04-05T12:04:58.403Z,2.55
2023-04-05T12:07:32.536Z,2.83
2023-04-05T12:10:09.838Z,2.58
2023-04-05T12:12:43.952Z,2.63
2023-04-05T12:15:15.540Z,2.15
2023-04-05T12:17:47.423Z,2.83
2023-04-05T12:20:19.686Z,2.65
2023-04-05T12:22:50.258Z,2.60
2023-04-05T12:25:22.422Z,4.50
2023-04-05T12:27:52.122Z,2.20
2023-04-05T12:30:23.241Z,2.30
2023-04-05T12:32:53.822Z,2.58
2023-04-05T12:35:27.395Z,2.33
2023-04-05T12:37:59.746Z,2.80
2023-04-05T12:40:33.112Z,2.03
2023-04-05T12:43:06.988Z,2.28
2023-04-05T12:45:42.165Z,2.08
2023-04-05T12:48:13.678Z,2.35
2023-04-05T12:50:48.709Z,2.25
2023-04-05T12:53:21.934Z,1.70
2023-04-05T12:55:54.286Z,3.22
2023-04-05T12:58:25.303Z,2.42
2023-04-05T13:00:55.032Z,2.75
2023-04-05T13:03:24.914Z,2.13
2023-04-05T13:05:54.661Z,2.03
2023-04-05T13:08:24.536Z,1.95
2023-04-05T13:10:58.013Z,2.15
2023-04-05T13:13:27.642Z,2.53
2023-04-05T13:15:57.291Z,2.83
2023-04-05T13:18:26.815Z,2.70
2023-04-05T13:20:56.991Z,2.67
2023-04-05T13:23:26.617Z,2.72
2023-04-05T13:25:57.698Z,4.80
2023-04-05T13:28:27.778Z,2.75
2023-04-05T13:30:57.733Z,3.65
2023-04-05T13:33:27.320Z,2.75
2023-04-05T13:35:56.983Z,3.00
2023-04-05T13:38:26.302Z,3.20
2023-04-05T13:40:57.593Z,3.38
2023-04-05T13:43:28.289Z,3.60
2023-04-05T13:45:58.355Z,3.50
2023-04-05T13:48:27.872Z,3.22
2023-04-05T13:50:58.096Z,2.80
2023-04-05T13:53:28.584Z,2.25
2023-04-05T13:55:59.936Z,2.20
2023-04-05T13:58:29.208Z,2.50
2023-04-05T14:00:59.265Z,2.88
2023-04-05T14:03:28.986Z,2.75
2023-04-05T14:05:59.052Z,2.73
2023-04-05T14:08:28.367Z,2.45
2023-04-05T14:10:59.752Z,2.30
2023-04-05T14:15:58.938Z,2.60
2023-04-05T14:18:28.711Z,4.50
2023-04-05T14:20:58.513Z,2.93
2023-04-05T14:23:28.592Z,3.30
2023-04-05T14:25:59.796Z,4.93
2023-04-05T14:28:29.151Z,3.13
2023-04-05T14:31:00.053Z,3.30
2023-04-05T14:33:29.537Z,3.75
2023-04-05T14:35:59.868Z,4.50
2023-04-05T14:38:29.527Z,4.35
2023-04-05T14:41:01.005Z,3.28
2023-04-05T14:43:31.048Z,4.40
2023-04-05T14:46:00.915Z,3.60
2023-04-05T14:48:32.085Z,4.03
2023-04-05T14:51:02.006Z,3.50
2023-04-05T14:53:31.520Z,3.70
2023-04-05T14:56:02.898Z,3.15
2023-04-05T15:01:10.352Z,3.20
2023-04-05T15:03:48.670Z,3.35
2023-04-05T15:06:18.570Z,3.55
2023-04-05T15:08:47.879Z,3.50
2023-04-05T15:11:19.182Z,3.28
2023-04-05T15:13:48.670Z,4.07
2023-04-05T15:16:18.753Z,3.75
2023-04-05T15:18:48.586Z,4.00
2023-04-05T15:21:18.487Z,3.67
2023-04-05T15:23:47.870Z,4.22
2023-04-05T15:26:19.133Z,3.92
2023-04-05T15:28:48.553Z,3.45
2023-04-05T15:31:18.440Z,3.28
2023-04-05T15:33:47.962Z,3.83
2023-04-05T15:36:18.099Z,3.55
2023-04-05T15:38:47.787Z,4.32
2023-04-05T15:41:19.485Z,3.10
2023-04-05T15:46:19.382Z,2.97
2023-04-05T15:48:48.669Z,2.25
2023-04-05T15:51:18.380Z,2.58
2023-04-05T15:53:47.855Z,3.17
2023-04-05T15:56:19.582Z,3.25
2023-04-05T15:58:49.733Z,2.50
2023-04-05T16:01:20.665Z,2.30
2023-04-05T16:03:51.036Z,2.60
2023-04-05T16:06:22.386Z,2.15
2023-04-05T16:08:52.095Z,2.58
2023-04-05T16:11:23.870Z,1.88
2023-04-05T16:16:34.763Z,2.08
2023-04-05T16:19:09.209Z,3.97
2023-04-05T16:21:39.362Z,2.15
2023-04-05T16:24:09.232Z,2.47
2023-04-05T16:26:40.606Z,2.67
2023-04-05T16:31:40.590Z,2.47
2023-04-05T16:34:10.304Z,2.25
2023-04-05T16:36:40.535Z,1.77
2023-04-05T16:39:10.650Z,2.22
2023-04-05T16:41:42.051Z,2.17
2023-04-05T16:44:12.112Z,2.10
2023-04-05T16:46:41.984Z,2.65
2023-04-05T16:49:11.521Z,2.20
2023-04-05T16:51:41.961Z,3.03
2023-04-05T16:54:11.266Z,2.55
2023-04-05T16:56:43.017Z,2.45
2023-04-05T16:59:12.657Z,1.95
2023-04-05T17:01:42.559Z,2.83
2023-04-05T17:04:12.024Z,2.05
2023-04-05T17:06:41.749Z,1.80
2023-04-05T17:09:11.448Z,2.47
2023-04-05T17:11:42.735Z,2.00
2023-04-05T17:14:12.276Z,2.40
2023-04-05T17:16:42.853Z,2.60
2023-04-05T17:19:12.339Z,2.28
2023-04-05T17:21:43.373Z,2.95
2023-04-05T17:24:12.879Z,2.83
2023-04-05T17:26:44.043Z,2.22
2023-04-05T17:29:13.907Z,3.08
2023-04-05T17:31:44.831Z,3.17
2023-04-05T17:34:16.698Z,2.60
2023-04-05T17:36:47.040Z,2.78
2023-04-05T17:39:17.122Z,3.15
2023-04-05T17:41:50.666Z,2.90
2023-04-05T17:44:20.477Z,3.58
2023-04-05T17:47:01.211Z,2.70
2023-04-05T17:49:36.713Z,3.63
2023-04-05T17:54:38.590Z,5.68
2023-04-05T17:57:15.745Z,2.47
2023-04-05T17:59:45.761Z,2.55
2023-04-05T18:02:15.652Z,4.00
2023-04-05T18:04:45.128Z,2.60
2023-04-05T18:07:15.015Z,2.13
2023-04-05T18:09:44.522Z,2.33
2023-04-05T18:12:15.753Z,3.33
2023-04-05T18:14:45.166Z,3.28
2023-04-05T18:17:15.637Z,3.07
2023-04-05T18:19:44.969Z,3.08
2023-04-05T18:22:14.800Z,3.33
2023-04-05T18:24:44.566Z,3.05
2023-04-05T18:27:16.507Z,4.00
2023-04-05T18:29:46.440Z,3.88
2023-04-05T18:32:16.696Z,3.65
2023-04-05T18:34:47.058Z,4.20
2023-04-05T18:37:17.440Z,4.65
2023-04-05T18:39:46.742Z,4.65
2023-04-05T18:42:17.965Z,4.45
2023-04-05T18:44:47.874Z,4.50
2023-04-05T18:47:17.701Z,4.45
2023-04-05T18:49:47.457Z,4.45
2023-04-05T18:52:22.473Z,5.37
2023-04-05T18:54:51.863Z,4.35
2023-04-05T18:57:23.349Z,4.60
2023-04-05T18:59:52.841Z,5.45
2023-04-05T19:02:22.633Z,5.72
2023-04-05T19:04:54.934Z,5.50
2023-04-05T19:07:25.508Z,4.80
2023-04-05T19:09:54.834Z,4.90
2023-04-05T19:12:26.533Z,5.13
2023-04-05T19:14:55.932Z,4.93
2023-04-05T19:17:25.598Z,6.00
2023-04-05T19:19:55.230Z,7.07
2023-04-05T19:22:25.785Z,6.07
2023-04-05T19:24:55.192Z,6.63
2023-04-05T19:27:31.072Z,5.82
2023-04-05T19:30:01.148Z,7.32
2023-04-05T19:32:31.544Z,7.45
2023-04-05T19:35:02.423Z,7.90
2023-04-05T19:37:32.231Z,6.43
2023-04-05T19:40:02.244Z,7.55
2023-04-05T19:42:35.988Z,7.45
2023-04-05T19:45:12.232Z,7.13
2023-04-05T19:47:49.367Z,7.22
2023-04-05T19:50:50.917Z,7.68
2023-04-05T19:53:44.683Z,5.78
2023-04-05T19:56:22.084Z,6.60
2023-04-05T19:59:03.317Z,9.02
2023-04-05T20:01:37.422Z,7.53
2023-04-05T20:04:14.202Z,7.70
2023-04-05T20:06:45.568Z,8.23
2023-04-05T20:09:20.635Z,8.10
2023-04-05T20:11:58.288Z,7.53
2023-04-05T20:14:43.907Z,8.02
2023-04-05T20:17:17.337Z,8.10
2023-04-05T20:20:01.868Z,7.63
2023-04-05T20:22:39.292Z,8.15
2023-04-05T20:25:41.286Z,8.52
2023-04-05T20:28:50.693Z,9.13
2023-04-05T20:31:29.075Z,7.90
2023-04-05T20:34:09.969Z,9.35
2023-04-05T20:36:49.532Z,8.70
2023-04-05T20:39:24.266Z,8.25
2023-04-05T20:41:59.187Z,8.02
2023-04-05T20:44:31.788Z,8.75
2023-04-05T20:47:09.496Z,10.32
2023-04-05T20:49:45.481Z,8.30
2023-04-05T20:52:17.756Z,8.45
2023-04-05T20:54:50.213Z,7.93
2023-04-05T20:57:21.125Z,9.25
2023-04-05T20:59:52.869Z,7.55
2023-04-05T21:02:26.142Z,7.32
2023-04-05T21:04:57.538Z,7.43
2023-04-05T21:07:29.486Z,7.97
2023-04-05T21:09:59.275Z,7.97
2023-04-05T21:12:34.187Z,7.30
2023-04-05T21:15:04.560Z,7.68
2023-04-05T21:17:38.532Z,9.15
2023-04-05T21:20:10.593Z,9.07
2023-04-05T21:22:44.126Z,7.32
2023-04-05T21:25:16.804Z,7.67
2023-04-05T21:27:49.365Z,7.07
2023-04-05T21:30:25.362Z,7.90
2023-04-05T21:33:00.920Z,7.22
2023-04-05T21:35:32.536Z,10.05
2023-04-05T21:38:06.060Z,7.93
2023-04-05T21:40:38.796Z,7.75
2023-04-05T21:43:09.388Z,8.95
2023-04-05T21:45:44.214Z,8.85
2023-04-05T21:48:15.728Z,7.47
2023-04-05T21:53:15.352Z,8.60
2023-04-05T21:55:52.386Z,8.90
2023-04-05T21:58:29.160Z,9.05
2023-04-05T22:01:00.303Z,7.97
2023-04-05T22:03:40.710Z,9.13
2023-04-05T22:06:14.338Z,8.13
2023-04-05T22:08:46.603Z,8.02
2023-04-05T22:11:16.941Z,8.63
2023-04-05T22:16:18.529Z,7.50
2023-04-05T22:18:51.280Z,7.45
2023-04-05T22:21:23.919Z,8.52
2023-04-05T22:23:54.756Z,7.95
2023-04-05T22:26:24.897Z,9.23
2023-04-05T22:28:55.081Z,13.10
2023-04-05T22:31:24.663Z,22.42
2023-04-05T22:33:57.138Z,14.80
2023-04-05T22:36:26.629Z,20.45
2023-04-05T22:38:56.752Z,16.45
2023-04-05T22:41:26.551Z,13.65
2023-04-05T22:43:56.537Z,18.27
2023-04-05T22:46:26.789Z,16.33
2023-04-05T22:49:01.443Z,11.57
2023-04-05T22:51:31.910Z,11.32
2023-04-05T22:56:32.364Z,8.70
2023-04-05T22:59:02.574Z,10.35
2023-04-05T23:01:32.240Z,10.27
2023-04-05T23:04:04.316Z,9.82
2023-04-05T23:06:34.326Z,7.68
2023-04-05T23:09:05.373Z,7.60
2023-04-05T23:11:38.064Z,8.43
2023-04-05T23:14:08.569Z,9.05
2023-04-05T23:16:38.337Z,9.00
2023-04-05T23:19:10.267Z,8.07
2023-04-05T23:21:41.681Z,10.10
2023-04-05T23:24:15.397Z,8.10
2023-04-05T23:26:45.334Z,9.15
2023-04-05T23:29:15.343Z,9.90
2023-04-05T23:31:44.912Z,10.15
2023-04-05T23:34:20.299Z,10.48
2023-04-05T23:36:52.678Z,10.48
2023-04-05T23:39:24.498Z,10.23
2023-04-05T23:44:24.417Z,8.23
2023-04-05T23:46:54.366Z,8.80
2023-04-05T23:49:27.202Z,9.68
2023-04-05T23:51:56.984Z,9.40
2023-04-05T23:54:27.074Z,8.77
2023-04-05T23:56:56.701Z,8.40
2023-04-05T23:59:31.368Z,8.55
